createdAt,value
2023-01-09T00:00:17.337Z,9.08
2023-01-09T00:04:29.996Z,9.18
2023-01-09T00:08:42.390Z,9.19
2023-01-09T00:12:54.773Z,9.18
2023-01-09T00:17:08.008Z,9.27
2023-01-09T00:21:21.387Z,9.32
2023-01-09T00:25:33.933Z,9.31
2023-01-09T00:29:46.951Z,9.56
2023-01-09T00:34:03.187Z,9.57
2023-01-09T00:38:15.496Z,9.45
2023-01-09T00:42:32.271Z,9.48
2023-01-09T00:46:49.359Z,9.47
2023-01-09T00:51:01.773Z,9.57
2023-01-09T00:55:15.689Z,9.47
2023-01-09T00:59:28.818Z,9.71
2023-01-09T01:03:41.483Z,9.89
2023-01-09T01:07:53.872Z,10.01
2023-01-09T01:12:07.513Z,10.08
2023-01-09T01:16:20.429Z,10.20
2023-01-09T01:20:33.004Z,10.21
2023-01-09T01:24:45.364Z,10.26
2023-01-09T01:28:59.890Z,10.24
2023-01-09T01:33:12.214Z,10.28
2023-01-09T01:37:24.933Z,10.23
2023-01-09T01:41:37.950Z,10.20
2023-01-09T01:45:50.306Z,10.17
2023-01-09T01:50:08.807Z,10.21
2023-01-09T01:54:26.558Z,10.27
2023-01-09T01:59:05.626Z,10.26
2023-01-09T02:03:19.715Z,10.35
2023-01-09T02:07:32.042Z,10.44
2023-01-09T02:11:52.704Z,10.38
2023-01-09T02:16:23.056Z,10.43
2023-01-09T02:20:49.055Z,10.36
2023-01-09T02:25:29.172Z,10.38
2023-01-09T02:29:54.811Z,10.43
2023-01-09T02:34:20.268Z,10.51
2023-01-09T02:39:00.530Z,10.59
2023-01-09T02:43:13.767Z,10.67
2023-01-09T02:47:26.079Z,10.72
2023-01-09T02:51:53.075Z,10.80
2023-01-09T02:56:12.551Z,10.84
2023-01-09T03:00:36.667Z,10.71
2023-01-09T03:05:07.156Z,10.74
2023-01-09T03:09:22.624Z,10.63
2023-01-09T03:13:50.258Z,10.56
2023-01-09T03:18:06.086Z,10.71
2023-01-09T03:22:20.067Z,10.78
2023-01-09T03:26:32.702Z,10.80
2023-01-09T03:30:45.397Z,10.70
2023-01-09T03:34:57.720Z,10.58
2023-01-09T03:39:10.070Z,10.77
2023-01-09T03:43:22.486Z,10.82
2023-01-09T03:47:34.948Z,10.73
2023-01-09T03:51:47.354Z,10.76
2023-01-09T03:55:59.787Z,10.92
2023-01-09T04:00:13.270Z,10.95
2023-01-09T04:04:25.640Z,10.79
2023-01-09T04:08:37.956Z,10.83
2023-01-09T04:12:50.404Z,11.22
2023-01-09T04:17:02.863Z,11.04
2023-01-09T04:21:15.197Z,11.01
2023-01-09T04:25:27.901Z,10.89
2023-01-09T04:29:40.179Z,11.03
2023-01-09T04:33:52.538Z,11.13
2023-01-09T04:38:04.917Z,10.96
2023-01-09T04:42:17.582Z,11.14
2023-01-09T04:46:29.886Z,11.17
2023-01-09T04:50:42.251Z,11.21
2023-01-09T04:54:54.685Z,11.15
2023-01-09T04:59:07.620Z,11.22
2023-01-09T05:03:20.058Z,11.28
2023-01-09T05:07:34.684Z,11.16
2023-01-09T05:11:47.005Z,11.16
2023-01-09T05:15:59.396Z,11.32
2023-01-09T05:20:12.626Z,11.33
2023-01-09T05:24:25.049Z,11.30
2023-01-09T05:28:37.426Z,11.36
2023-01-09T05:32:49.802Z,11.36
2023-01-09T05:37:02.917Z,11.47
2023-01-09T05:41:16.948Z,11.65
2023-01-09T05:45:29.343Z,11.68
2023-01-09T05:49:42.029Z,11.62
2023-01-09T05:53:54.511Z,11.60
2023-01-09T05:58:06.838Z,11.73
2023-01-09T06:02:21.471Z,11.71
2023-01-09T06:06:33.897Z,11.71
2023-01-09T06:10:47.337Z,11.78
2023-01-09T06:14:59.827Z,11.78
2023-01-09T06:19:12.175Z,11.74
2023-01-09T06:23:24.523Z,11.78
2023-01-09T06:27:36.845Z,11.63
2023-01-09T06:31:49.223Z,11.67
2023-01-09T06:36:01.770Z,11.77
2023-01-09T06:40:15.216Z,11.77
2023-01-09T06:44:27.608Z,11.78
2023-01-09T06:48:39.959Z,11.67
2023-01-09T06:52:52.383Z,11.61
2023-01-09T06:57:04.899Z,11.40
2023-01-09T07:01:17.498Z,11.36
2023-01-09T07:05:30.741Z,11.37
2023-01-09T07:09:43.168Z,11.21
2023-01-09T07:13:55.655Z,11.19
2023-01-09T07:18:08.082Z,11.23
2023-01-09T07:22:20.454Z,11.39
2023-01-09T07:26:32.926Z,11.73
2023-01-09T07:30:45.230Z,11.64
2023-01-09T07:34:57.763Z,11.68
2023-01-09T07:39:10.154Z,11.78
2023-01-09T07:43:27.292Z,11.99
2023-01-09T07:47:41.981Z,11.98
2023-01-09T07:51:57.495Z,12.52
2023-01-09T07:56:10.608Z,12.74
2023-01-09T08:00:23.135Z,13.00
2023-01-09T08:04:35.675Z,12.86
2023-01-09T08:08:48.116Z,13.06
2023-01-09T08:13:00.719Z,12.68
2023-01-09T08:17:13.575Z,13.10
2023-01-09T08:21:25.840Z,13.09
2023-01-09T08:25:38.175Z,13.78
2023-01-09T08:29:50.761Z,13.62
2023-01-09T08:34:03.546Z,14.06
2023-01-09T08:38:16.046Z,14.09
2023-01-09T08:42:46.966Z,14.21
2023-01-09T08:47:06.532Z,14.77
2023-01-09T08:51:20.716Z,14.52
2023-01-09T08:55:33.037Z,14.92
2023-01-09T08:59:45.526Z,14.77
2023-01-09T09:03:57.963Z,14.64
2023-01-09T09:08:12.926Z,14.93
2023-01-09T09:12:26.253Z,15.15
2023-01-09T09:16:38.651Z,14.87
2023-01-09T09:20:51.455Z,14.75
2023-01-09T09:25:05.234Z,14.99
2023-01-09T09:29:17.644Z,14.95
2023-01-09T09:33:30.616Z,15.02
2023-01-09T09:37:44.551Z,15.11
2023-01-09T09:42:53.028Z,15.12
2023-01-09T09:47:27.350Z,15.10
2023-01-09T09:51:50.783Z,14.96
2023-01-09T09:56:05.066Z,14.77
2023-01-09T10:00:22.558Z,14.74
2023-01-09T10:04:40.733Z,14.61
2023-01-09T10:09:15.039Z,14.04
2023-01-09T10:13:46.744Z,13.60
2023-01-09T10:18:11.267Z,13.72
2023-01-09T10:23:15.242Z,13.49
2023-01-09T10:27:39.791Z,12.89
2023-01-09T10:32:10.207Z,12.58
2023-01-09T10:36:30.743Z,12.48
2023-01-09T10:40:52.143Z,12.26
2023-01-09T10:45:19.863Z,12.50
2023-01-09T10:49:36.454Z,13.26
2023-01-09T10:53:54.423Z,12.59
2023-01-09T10:58:14.683Z,12.14
2023-01-09T11:02:33.898Z,12.23
2023-01-09T11:06:51.477Z,12.70
2023-01-09T11:11:04.921Z,12.93
2023-01-09T11:15:20.885Z,13.33
2023-01-09T11:19:33.903Z,13.32
2023-01-09T11:23:46.158Z,13.22
2023-01-09T11:28:07.978Z,13.21
2023-01-09T11:32:25.525Z,13.23
2023-01-09T11:36:38.222Z,13.42
2023-01-09T11:40:57.802Z,13.48
2023-01-09T11:45:22.203Z,13.29
2023-01-09T11:49:34.584Z,12.78
2023-01-09T11:53:57.795Z,12.22
2023-01-09T11:58:20.197Z,12.33
2023-01-09T12:02:35.794Z,12.78
2023-01-09T12:07:45.110Z,12.66
2023-01-09T12:12:12.132Z,13.09
2023-01-09T12:16:33.881Z,13.22
2023-01-09T12:21:04.090Z,13.47
2023-01-09T12:25:38.673Z,13.59
2023-01-09T12:30:02.846Z,13.80
2023-01-09T12:34:26.125Z,13.96
2023-01-09T12:39:08.594Z,13.95
2023-01-09T12:43:58.628Z,14.00
2023-01-09T12:48:28.775Z,14.09
2023-01-09T12:52:58.647Z,14.23
2023-01-09T12:57:33.237Z,14.01
2023-01-09T13:01:51.346Z,13.88
2023-01-09T13:06:13.238Z,13.78
2023-01-09T13:10:43.967Z,13.76
2023-01-09T13:15:07.888Z,13.82
2023-01-09T13:19:37.738Z,13.85
2023-01-09T13:24:03.546Z,13.77
2023-01-09T13:28:31.648Z,13.88
2023-01-09T13:32:52.036Z,14.00
2023-01-09T13:37:04.544Z,14.24
2023-01-09T13:41:37.690Z,14.38
2023-01-09T13:45:52.621Z,14.47
2023-01-09T13:50:09.372Z,14.20
2023-01-09T13:54:58.992Z,13.88
2023-01-09T13:59:28.481Z,14.02
2023-01-09T14:03:40.847Z,13.48
2023-01-09T14:08:07.243Z,13.22
2023-01-09T14:12:22.713Z,13.13
2023-01-09T14:16:38.291Z,12.94
2023-01-09T14:21:12.565Z,12.96
2023-01-09T14:25:29.574Z,12.69
2023-01-09T14:29:44.084Z,12.82
2023-01-09T14:34:32.243Z,12.56
2023-01-09T14:38:49.696Z,12.52
2023-01-09T14:43:13.367Z,12.81
2023-01-09T14:47:31.793Z,12.82
2023-01-09T14:51:47.341Z,12.64
2023-01-09T14:56:02.837Z,12.13
2023-01-09T15:00:18.342Z,12.14
2023-01-09T15:04:40.978Z,11.92
2023-01-09T15:09:02.414Z,11.92
2023-01-09T15:13:29.750Z,11.92
2023-01-09T15:17:45.743Z,11.46
2023-01-09T15:22:05.742Z,11.07
2023-01-09T15:26:26.494Z,10.89
2023-01-09T15:30:39.584Z,10.23
2023-01-09T15:34:55.348Z,10.06
2023-01-09T15:39:07.890Z,10.09
2023-01-09T15:43:20.652Z,9.82
2023-01-09T15:47:33.109Z,10.64
2023-01-09T15:51:47.343Z,10.01
2023-01-09T15:56:09.092Z,9.79
2023-01-09T16:00:35.552Z,10.50
2023-01-09T16:04:49.198Z,10.90
2023-01-09T16:09:02.976Z,10.84
2023-01-09T16:13:16.180Z,10.77
2023-01-09T16:17:31.372Z,10.74
2023-01-09T16:21:46.967Z,10.73
2023-01-09T16:26:20.171Z,10.77
2023-01-09T16:30:33.472Z,10.73
2023-01-09T16:34:53.300Z,10.71
2023-01-09T16:39:05.759Z,10.71
2023-01-09T16:43:18.006Z,10.89
2023-01-09T16:47:30.405Z,10.73
2023-01-09T16:51:42.710Z,10.76
2023-01-09T16:55:55.405Z,10.71
2023-01-09T17:00:14.492Z,10.61
2023-01-09T17:04:26.944Z,10.68
2023-01-09T17:08:40.773Z,10.65
2023-01-09T17:12:53.266Z,10.66
2023-01-09T17:17:11.628Z,10.59
2023-01-09T17:21:27.235Z,10.54
2023-01-09T17:25:58.852Z,10.58
2023-01-09T17:30:18.662Z,10.52
2023-01-09T17:34:32.185Z,10.44
2023-01-09T17:38:44.536Z,10.52
2023-01-09T17:42:56.955Z,10.44
2023-01-09T17:47:18.540Z,10.54
2023-01-09T17:51:32.029Z,10.63
2023-01-09T17:55:44.586Z,11.00
2023-01-09T17:59:57.044Z,10.86
2023-01-09T18:04:09.865Z,11.09
2023-01-09T18:08:22.228Z,10.99
2023-01-09T18:12:36.137Z,11.09
2023-01-09T18:16:48.625Z,11.25
2023-01-09T18:21:05.062Z,11.13
2023-01-09T18:25:17.667Z,11.58
2023-01-09T18:29:30.649Z,11.28
2023-01-09T18:33:47.342Z,11.49
2023-01-09T18:38:00.263Z,11.17
2023-01-09T18:42:12.905Z,11.49
2023-01-09T18:46:26.315Z,11.37
2023-01-09T18:50:39.035Z,11.47
2023-01-09T18:54:52.553Z,11.71
2023-01-09T18:59:07.003Z,11.69
2023-01-09T19:03:20.578Z,11.81
2023-01-09T19:07:34.186Z,11.59
2023-01-09T19:11:46.879Z,11.41
2023-01-09T19:16:00.501Z,11.36
2023-01-09T19:20:13.025Z,11.43
2023-01-09T19:24:25.792Z,11.27
2023-01-09T19:28:39.873Z,11.32
2023-01-09T19:32:52.459Z,11.18
2023-01-09T19:37:05.252Z,11.03
2023-01-09T19:41:20.293Z,10.58
2023-01-09T19:45:32.790Z,11.04
2023-01-09T19:49:46.784Z,11.05
2023-01-09T19:58:16.008Z,11.16
2023-01-09T20:02:28.429Z,10.86
2023-01-09T20:06:45.915Z,10.60
2023-01-09T20:11:03.698Z,10.73
2023-01-09T20:15:18.628Z,10.42
2023-01-09T20:19:33.447Z,10.52
2023-01-09T20:23:46.085Z,10.32
2023-01-09T20:27:58.954Z,10.62
2023-01-09T20:32:12.315Z,10.65
2023-01-09T20:36:29.405Z,10.64
2023-01-09T20:40:45.082Z,10.67
2023-01-09T20:44:57.539Z,10.39
2023-01-09T20:49:13.630Z,10.07
2023-01-09T20:53:26.131Z,10.31
2023-01-09T20:57:40.221Z,10.24
2023-01-09T21:01:54.084Z,10.64
2023-01-09T21:06:08.303Z,10.81
2023-01-09T21:10:24.028Z,10.45
2023-01-09T21:14:39.120Z,10.33
2023-01-09T21:18:54.488Z,10.14
2023-01-09T21:23:09.107Z,10.22
2023-01-09T21:27:21.611Z,10.32
2023-01-09T21:31:35.130Z,10.11
2023-01-09T21:35:58.896Z,10.02
2023-01-09T21:40:18.199Z,10.34
2023-01-09T21:44:49.213Z,10.38
2023-01-09T21:49:07.279Z,10.21
2023-01-09T21:53:20.213Z,10.37
2023-01-09T21:57:32.613Z,9.78
2023-01-09T22:01:52.353Z,10.06
2023-01-09T22:06:05.839Z,10.12
2023-01-09T22:10:18.381Z,10.29
2023-01-09T22:14:30.787Z,10.39
2023-01-09T22:18:44.253Z,10.38
2023-01-09T22:22:56.611Z,10.12
2023-01-09T22:27:09.074Z,10.27
2023-01-09T22:31:25.304Z,10.16
2023-01-09T22:35:39.846Z,10.16
2023-01-09T22:39:52.977Z,9.89
2023-01-09T22:44:08.366Z,9.88
2023-01-09T22:48:20.689Z,9.88
2023-01-09T22:52:34.522Z,10.19
2023-01-09T22:56:46.809Z,10.18
2023-01-09T23:00:59.401Z,10.01
2023-01-09T23:05:12.108Z,9.94
2023-01-09T23:09:25.521Z,9.92
2023-01-09T23:13:38.978Z,9.92
2023-01-09T23:17:51.279Z,9.82
2023-01-09T23:22:05.352Z,9.96
2023-01-09T23:26:17.675Z,9.80
2023-01-09T23:30:30.067Z,9.63
2023-01-09T23:34:42.588Z,9.78
2023-01-09T23:38:55.059Z,9.91
2023-01-09T23:43:10.638Z,9.92
2023-01-09T23:47:23.046Z,9.84
2023-01-09T23:51:35.526Z,9.70
2023-01-09T23:55:48.680Z,9.67
